Seward, Nebraska
Current Conditions -  °F | °C
As of 10:54 PM on Monday 20 Oct 2014 (Local Time) from KLNK Reporting Station
Clear Clear  
Wind Chill: 39°   Ceiling: Unl
Heat Index: 42°   Visibility: 8mi
Dew Point: 37°   Wind: 5mph
Humidity: 82%   Direction: 350°N
Pressure: 30.09"   Gusts: NA
Location:  40.91°N, 97.1°W
Report Text: KLNK 210354Z 35004KT 8SM CLR 06/03 A3009 RMK AO2 SLP189 T00560028
Loading
Personal Weather Stations






























Interactive Weather Map
Tropical Storm Tracking
New forecast layout! Learn more

10-Day Weather Forecast

Advertisements
Track Severe Weather on mobile